Time;durP1;ratioP1;P1;durP2;ratioP2;P2;SDS_P1;SDS_P2;PMS_P1;PMS_P2;Temp;Humidity;BMP_temperature;BMP_pressure;BME280_temperature;BME280_humidity;BME280_pressure;Samples;Min_cycle;Max_cycle;Signal;HPM_P1;HPM_P2
2022/08/01 00:02:20;;;;;;;;;;;;;;;23.64;42.00;100967.06;5076710;28;19989;-59
2022/08/01 00:04:46;;;;;;;;;;;;;;;23.64;41.90;100960.81;5077735;28;20280;-60
2022/08/01 00:07:11;;;;;;;;;;;;;;;23.63;42.02;100968.06;5084658;28;20008;-58
2022/08/01 00:09:36;;;;;;;;;;;;;;;23.62;42.22;100960.16;5083977;28;19994;-58
2022/08/01 00:12:02;;;;;;;;;;;;;;;23.59;41.98;100962.19;5073177;28;20302;-58
2022/08/01 00:14:27;;;;;;;;;;;;;;;23.58;42.06;100955.16;5074518;28;19916;-56
2022/08/01 00:16:52;;;;;;;;;;;;;;;23.56;42.13;100948.25;5080325;28;19919;-56
2022/08/01 00:19:18;;;;;;;;;;;;;;;23.54;42.07;100948.41;5075968;28;19916;-56
2022/08/01 00:21:43;;;;;;;;;;;;;;;23.49;42.10;100950.75;5077113;28;20010;-57
2022/08/01 00:24:08;;;;;;;;;;;;;;;23.46;42.34;100944.91;5080693;28;20314;-57
2022/08/01 00:26:34;;;;;;;;;;;;;;;23.44;42.36;100945.91;5079525;28;20375;-60
2022/08/01 00:28:59;;;;;;;;;;;;;;;23.43;42.62;100946.91;5084694;28;19924;-61
2022/08/01 00:31:24;;;;;;;;;;;;;;;23.40;42.32;100952.63;5078149;28;19920;-59
2022/08/01 00:33:49;;;;;;;;;;;;;;;23.38;42.69;100941.19;5081682;28;19927;-58
2022/08/01 00:36:15;;;;;;;;;;;;;;;23.36;42.53;100942.38;5076523;28;20441;-61
2022/08/01 00:38:40;;;;;;;;;;;;;;;23.36;42.85;100945.06;5080544;28;19924;-59
2022/08/01 00:41:05;;;;;;;;;;;;;;;23.32;42.70;100941.88;5075075;28;20385;-57
2022/08/01 00:43:31;;;;;;;;;;;;;;;23.30;42.83;100938.53;5081363;28;19924;-56
2022/08/01 00:45:56;;;;;;;;;;;;;;;23.28;43.05;100937.84;5085410;28;19935;-57
2022/08/01 00:48:21;;;;;;;;;;;;;;;23.26;42.96;100931.81;5079891;28;20025;-58
2022/08/01 00:50:47;;;;;;;;;;;;;;;23.24;42.84;100932.00;5077194;28;19920;-55
2022/08/01 00:53:12;;;;;;;;;;;;;;;23.24;42.86;100929.31;5086266;28;19936;-56
2022/08/01 00:55:37;;;;;;;;;;;;;;;23.26;43.25;100934.50;5085437;28;19920;-56
2022/08/01 00:58:03;;;;;;;;;;;;;;;23.24;43.14;100925.75;5078933;28;19920;-57
2022/08/01 01:00:28;;;;;;;;;;;;;;;23.24;43.15;100931.13;5079828;28;19924;-59
2022/08/01 01:02:53;;;;;;;;;;;;;;;23.23;43.27;100929.44;5076475;28;19920;-61
2022/08/01 01:05:19;;;;;;;;;;;;;;;23.24;43.29;100928.44;5077296;28;19920;-61
2022/08/01 01:07:50;;;;;;;;;;;;;;;23.22;43.15;100922.41;5083488;28;19977;-58
2022/08/01 01:10:20;;;;;;;;;;;;;;;23.23;43.29;100926.78;5078366;28;19929;-60
2022/08/01 01:12:49;;;;;;;;;;;;;;;23.21;43.41;100926.94;5074293;28;20432;-58
2022/08/01 01:15:14;;;;;;;;;;;;;;;23.20;43.55;100925.28;5083783;28;19919;-57
2022/08/01 01:17:48;;;;;;;;;;;;;;;23.21;43.55;100926.13;5081978;28;19923;-56
2022/08/01 01:20:14;;;;;;;;;;;;;;;23.21;43.40;100931.50;5079306;28;19928;-58
2022/08/01 01:22:52;;;;;;;;;;;;;;;23.20;43.51;100937.84;5078636;28;19928;-56
2022/08/01 01:25:24;;;;;;;;;;;;;;;23.21;43.55;100936.88;5077454;28;19923;-59
2022/08/01 01:27:57;;;;;;;;;;;;;;;23.19;43.55;100936.97;5075812;28;20268;-55
2022/08/01 01:30:23;;;;;;;;;;;;;;;23.19;43.69;100944.22;5080733;28;20033;-55
2022/08/01 01:32:50;;;;;;;;;;;;;;;23.18;43.70;100934.47;5083310;28;19951;-57
2022/08/01 01:35:22;;;;;;;;;;;;;;;23.15;43.87;100932.94;5081930;28;19931;-57
2022/08/01 01:37:49;;;;;;;;;;;;;;;23.14;43.61;100932.13;5078094;28;19916;-57
2022/08/01 01:40:16;;;;;;;;;;;;;;;23.14;43.66;100931.28;5074757;28;19973;-56
2022/08/01 01:42:43;;;;;;;;;;;;;;;23.16;43.90;100931.13;5073555;28;20004;-56
2022/08/01 01:45:08;;;;;;;;;;;;;;;23.18;43.70;100931.78;5080646;28;20007;-55
2022/08/01 01:47:34;;;;;;;;;;;;;;;23.17;43.73;100935.47;5082981;28;20010;-58
2022/08/01 01:49:59;;;;;;;;;;;;;;;23.11;43.88;100927.06;5080161;28;19924;-61
2022/08/01 01:52:26;;;;;;;;;;;;;;;23.06;43.57;100929.44;5075971;28;19940;-61
2022/08/01 01:54:52;;;;;;;;;;;;;;;23.04;43.71;100935.97;5073094;28;19927;-55
2022/08/01 01:57:18;;;;;;;;;;;;;;;23.02;43.59;100927.22;5077339;28;19920;-58
2022/08/01 01:59:45;;;;;;;;;;;;;;;22.97;43.76;100931.28;5078984;28;19927;-58
2022/08/01 02:02:11;;;;;;;;;;;;;;;22.95;43.91;100921.69;5076308;28;19932;-56
2022/08/01 02:04:39;;;;;;;;;;;;;;;22.93;43.89;100921.00;5074752;28;20007;-58
2022/08/01 02:07:06;;;;;;;;;;;;;;;22.88;43.95;100920.69;5076192;28;19920;-55
2022/08/01 02:09:33;;;;;;;;;;;;;;;22.80;44.10;100921.53;5074396;28;19928;-57
2022/08/01 02:11:59;;;;;;;;;;;;;;;22.72;44.16;100919.66;5076614;28;19920;-56
2022/08/01 02:14:26;;;;;;;;;;;;;;;22.65;44.15;100915.94;5078007;28;19935;-56
2022/08/01 02:16:54;;;;;;;;;;;;;;;22.57;44.45;100918.63;5075083;28;20022;-60
2022/08/01 02:19:19;;;;;;;;;;;;;;;22.49;44.63;100928.31;5074531;28;20301;-58
2022/08/01 02:21:51;;;;;;;;;;;;;;;22.44;44.81;100925.28;5075225;28;20405;-58
2022/08/01 02:24:23;;;;;;;;;;;;;;;22.38;44.60;100921.38;5073082;28;19978;-61
2022/08/01 02:26:50;;;;;;;;;;;;;;;22.31;44.94;100914.97;5077476;28;20363;-58
2022/08/01 02:29:21;;;;;;;;;;;;;;;22.29;44.88;100910.78;5074100;28;19924;-62
2022/08/01 02:31:47;;;;;;;;;;;;;;;22.28;44.88;100912.63;5074700;28;19916;-61
2022/08/01 02:34:16;;;;;;;;;;;;;;;22.26;45.14;100911.94;5077065;28;20121;-57
2022/08/01 02:36:44;;;;;;;;;;;;;;;22.25;44.85;100906.75;5080399;28;19924;-56
2022/08/01 02:39:11;;;;;;;;;;;;;;;22.24;45.01;100913.94;5081659;28;19920;-57
2022/08/01 02:41:39;;;;;;;;;;;;;;;22.24;45.05;100911.25;5084557;28;20029;-57
2022/08/01 02:44:06;;;;;;;;;;;;;;;22.20;45.00;100910.75;5090015;28;20426;-56
2022/08/01 02:46:34;;;;;;;;;;;;;;;22.15;45.00;100913.09;5089214;28;19970;-58
2022/08/01 02:49:02;;;;;;;;;;;;;;;22.12;45.20;100916.06;5083508;28;19920;-56
2022/08/01 02:51:29;;;;;;;;;;;;;;;22.12;45.56;100915.22;5085084;28;19928;-55
2022/08/01 02:53:55;;;;;;;;;;;;;;;22.11;45.27;100919.75;5087870;28;19924;-57
2022/08/01 02:56:22;;;;;;;;;;;;;;;22.11;45.69;100918.91;5082007;28;19916;-57
2022/08/01 02:58:48;;;;;;;;;;;;;;;22.13;45.66;100919.59;5084881;28;19920;-56
2022/08/01 03:01:15;;;;;;;;;;;;;;;22.14;45.50;100911.41;5080632;28;19955;-58
2022/08/01 03:03:40;;;;;;;;;;;;;;;22.15;45.76;100910.41;5078461;28;19916;-56
2022/08/01 03:06:06;;;;;;;;;;;;;;;22.15;45.97;100915.75;5080669;28;19920;-55
2022/08/01 03:08:32;;;;;;;;;;;;;;;22.16;45.88;100928.13;5082400;28;19935;-62
2022/08/01 03:10:58;;;;;;;;;;;;;;;;;;5082812;28;19924;-58
2022/08/01 03:13:23;;;;;;;;;;;;;;;;;;5084674;28;20295;-56
2022/08/01 03:15:48;;;;;;;;;;;;;;;;;;5083834;28;19920;-57
2022/08/01 03:18:14;;;;;;;;;;;;;;;22.18;46.33;100928.00;5081865;28;20378;-56
2022/08/01 03:20:41;;;;;;;;;;;;;;;22.19;46.21;100927.81;5078487;28;19960;-56
2022/08/01 03:23:07;;;;;;;;;;;;;;;22.20;46.56;100918.78;5077987;28;20407;-57
2022/08/01 03:25:34;;;;;;;;;;;;;;;22.21;46.56;100920.47;5078331;28;19934;-59
2022/08/01 03:28:02;;;;;;;;;;;;;;;22.21;46.67;100925.00;5078531;28;20410;-56
2022/08/01 03:30:29;;;;;;;;;;;;;;;22.22;46.76;100918.63;5078068;28;19947;-61
2022/08/01 03:32:55;;;;;;;;;;;;;;;22.19;46.60;100925.13;5079147;28;19916;-61
2022/08/01 03:35:22;;;;;;;;;;;;;;;22.18;47.15;100925.31;5078111;28;21101;-60
2022/08/01 03:37:50;;;;;;;;;;;;;;;22.16;47.07;100933.50;5079311;28;20379;-56
2022/08/01 03:40:23;;;;;;;;;;;;;;;22.14;47.17;100927.47;5077743;28;19968;-58
2022/08/01 03:42:50;;;;;;;;;;;;;;;22.12;47.28;100929.47;5079531;28;19928;-59
2022/08/01 03:45:19;;;;;;;;;;;;;;;22.10;47.32;100939.50;5078311;28;19959;-58
2022/08/01 03:47:46;;;;;;;;;;;;;;;22.06;47.39;100936.31;5076524;28;19970;-58
2022/08/01 03:50:13;;;;;;;;;;;;;;;22.01;47.80;100935.09;5075350;28;21779;-55
2022/08/01 03:52:41;;;;;;;;;;;;;;;21.95;48.22;100933.06;5079292;28;20454;-58
2022/08/01 03:55:07;;;;;;;;;;;;;;;21.90;48.23;100937.06;5079496;28;19931;-55
2022/08/01 03:57:33;;;;;;;;;;;;;;;21.89;48.61;100940.72;5079645;28;19920;-55
2022/08/01 03:59:59;;;;;;;;;;;;;;;21.87;48.81;100934.69;5082153;28;19932;-57
2022/08/01 04:02:25;;;;;;;;;;;;;;;21.86;48.68;100943.72;5075386;28;19932;-57
2022/08/01 04:04:50;;;;;;;;;;;;;;;21.85;48.90;100942.06;5082980;28;19920;-57
2022/08/01 04:07:23;;;;;;;;;;;;;;;21.85;49.46;100944.75;5083485;28;20042;-59
2022/08/01 04:09:48;;;;;;;;;;;;;;;21.85;49.32;100952.78;5080728;28;19924;-58
2022/08/01 04:12:14;;;;;;;;;;;;;;;21.84;49.49;100948.41;5078757;28;19943;-55
2022/08/01 04:14:39;;;;;;;;;;;;;;;21.83;49.42;100948.56;5084533;28;19923;-57
2022/08/01 04:17:04;;;;;;;;;;;;;;;21.80;49.63;100949.72;5081478;28;19961;-59
2022/08/01 04:19:30;;;;;;;;;;;;;;;21.75;50.12;100946.66;5083529;28;19935;-60
2022/08/01 04:21:56;;;;;;;;;;;;;;;21.72;50.24;100945.16;5079147;28;19971;-58
2022/08/01 04:24:23;;;;;;;;;;;;;;;21.71;50.19;100945.28;5078798;28;19923;-57
2022/08/01 04:26:50;;;;;;;;;;;;;;;21.69;50.52;100947.31;5070902;28;19924;-57
2022/08/01 04:29:17;;;;;;;;;;;;;;;21.66;51.07;100955.66;5080785;28;19924;-56
2022/08/01 04:31:44;;;;;;;;;;;;;;;21.65;51.21;100951.28;5076416;28;19986;-55
2022/08/01 04:34:12;;;;;;;;;;;;;;;21.68;51.23;100950.97;5079443;28;19920;-57
2022/08/01 04:36:38;;;;;;;;;;;;;;;21.73;51.51;100949.50;5077807;28;19916;-58
2022/08/01 04:39:04;;;;;;;;;;;;;;;21.79;51.06;100953.41;5085513;28;19916;-57
2022/08/01 04:41:30;;;;;;;;;;;;;;;21.82;51.29;100957.59;5079572;28;20363;-61
2022/08/01 04:43:59;;;;;;;;;;;;;;;21.80;51.75;100949.72;5081762;28;19920;-60
2022/08/01 04:46:24;;;;;;;;;;;;;;;21.77;51.70;100955.38;5083748;28;20411;-59
2022/08/01 04:48:50;;;;;;;;;;;;;;;21.80;51.81;100952.41;5077059;28;19935;-56
2022/08/01 04:51:16;;;;;;;;;;;;;;;21.83;51.64;100957.44;5078255;28;20029;-58
2022/08/01 04:53:42;;;;;;;;;;;;;;;21.83;52.25;100959.28;5085232;28;19961;-58
2022/08/01 04:56:07;;;;;;;;;;;;;;;21.85;52.19;100955.47;5072364;28;19963;-55
2022/08/01 04:58:33;;;;;;;;;;;;;;;21.85;51.94;100962.63;5084145;28;20402;-56
2022/08/01 05:00:58;;;;;;;;;;;;;;;21.83;52.23;100960.13;5076106;28;19920;-54
2022/08/01 05:03:23;;;;;;;;;;;;;;;21.80;52.47;100963.13;5080516;28;19924;-57
2022/08/01 05:05:49;;;;;;;;;;;;;;;21.78;52.69;100965.09;5069951;28;19920;-57
2022/08/01 05:08:14;;;;;;;;;;;;;;;21.78;52.77;100962.44;5082628;28;20403;-54
2022/08/01 05:10:39;;;;;;;;;;;;;;;21.78;52.81;100968.59;5079180;28;19924;-57
2022/08/01 05:13:06;;;;;;;;;;;;;;;21.82;52.60;100969.16;5075392;28;19920;-53
2022/08/01 05:15:31;;;;;;;;;;;;;;;21.82;52.74;100974.50;5080329;28;19992;-56
2022/08/01 05:17:57;;;;;;;;;;;;;;;21.82;52.93;100974.50;5081402;28;20387;-55
2022/08/01 05:20:22;;;;;;;;;;;;;;;21.84;53.11;100972.53;5077200;28;19958;-58
2022/08/01 05:22:47;;;;;;;;;;;;;;;21.86;52.81;100970.50;5081165;28;20383;-59
2022/08/01 05:25:13;;;;;;;;;;;;;;;21.85;53.31;100974.19;5068938;28;20010;-61
2022/08/01 05:27:40;;;;;;;;;;;;;;;21.86;53.36;100981.22;5077766;28;20393;-54
2022/08/01 05:30:09;;;;;;;;;;;;;;;21.86;53.36;100973.19;5082046;28;19924;-60
2022/08/01 05:32:35;;;;;;;;;;;;;;;21.85;53.67;100973.34;5078482;28;19952;-56
2022/08/01 05:35:00;;;;;;;;;;;;;;;21.80;54.05;100972.97;5080491;28;20013;-54
2022/08/01 05:37:26;;;;;;;;;;;;;;;21.80;54.28;100984.53;5077584;28;19923;-54
2022/08/01 05:39:51;;;;;;;;;;;;;;;21.78;54.54;100978.50;5077032;28;20023;-54
2022/08/01 05:42:16;;;;;;;;;;;;;;;21.81;54.41;100982.69;5078426;28;19961;-56
2022/08/01 05:44:41;;;;;;;;;;;;;;;21.82;54.62;100982.56;5078548;28;19981;-54
2022/08/01 05:47:07;;;;;;;;;;;;;;;21.82;54.48;100984.38;5067992;28;19916;-58
2022/08/01 05:49:32;;;;;;;;;;;;;;;21.78;54.81;100970.47;5072429;28;19924;-56
2022/08/01 05:51:57;;;;;;;;;;;;;;;21.78;55.02;100975.81;5070798;28;20323;-54
2022/08/01 05:54:23;;;;;;;;;;;;;;;21.80;55.08;100976.50;5072682;28;19947;-55
2022/08/01 05:56:48;;;;;;;;;;;;;;;21.83;55.17;100972.66;5074643;28;19962;-58
2022/08/01 05:59:13;;;;;;;;;;;;;;;21.86;55.08;100986.56;5071643;28;19920;-54
2022/08/01 06:01:39;;;;;;;;;;;;;;;21.88;55.18;100989.94;5075072;28;19924;-56
2022/08/01 06:04:04;;;;;;;;;;;;;;;21.88;55.40;100995.28;5080724;28;20040;-54
2022/08/01 06:06:29;;;;;;;;;;;;;;;21.88;55.30;100991.78;5074047;28;19926;-59
2022/08/01 06:08:55;;;;;;;;;;;;;;;21.90;55.49;100995.97;5073907;28;19920;-58
2022/08/01 06:11:20;;;;;;;;;;;;;;;21.93;55.58;100987.63;5077415;28;19923;-62
2022/08/01 06:13:45;;;;;;;;;;;;;;;21.99;55.55;100996.88;5075895;28;19966;-55
2022/08/01 06:16:11;;;;;;;;;;;;;;;22.04;55.72;100996.41;5082822;28;19920;-59
2022/08/01 06:18:36;;;;;;;;;;;;;;;22.11;55.67;101002.81;5082307;28;19924;-55
2022/08/01 06:21:01;;;;;;;;;;;;;;;22.13;55.25;100997.28;5081217;28;19920;-59
2022/08/01 06:23:27;;;;;;;;;;;;;;;22.15;55.56;101001.50;5088638;28;19924;-56
2022/08/01 06:25:53;;;;;;;;;;;;;;;22.17;55.47;101004.03;5080566;28;20011;-58
2022/08/01 06:28:19;;;;;;;;;;;;;;;22.20;55.92;101009.91;5082485;28;19982;-59
2022/08/01 06:30:44;;;;;;;;;;;;;;;22.21;55.78;101014.25;5080021;28;21260;-56
2022/08/01 06:33:09;;;;;;;;;;;;;;;22.22;55.99;101017.81;5075771;28;19920;-60
2022/08/01 06:35:35;;;;;;;;;;;;;;;22.22;55.83;101009.75;5077031;28;20379;-55
2022/08/01 06:38:01;;;;;;;;;;;;;;;22.18;55.84;101017.25;5081080;28;19935;-55
2022/08/01 06:40:26;;;;;;;;;;;;;;;22.15;56.62;101020.28;5078377;28;19969;-54
2022/08/01 06:42:52;;;;;;;;;;;;;;;22.11;56.87;101013.53;5074691;28;19932;-57
2022/08/01 06:45:17;;;;;;;;;;;;;;;22.07;56.87;101025.56;5076283;28;20011;-55
2022/08/01 06:47:43;;;;;;;;;;;;;;;22.10;56.79;101017.22;5076181;28;19927;-54
2022/08/01 06:50:09;;;;;;;;;;;;;;;22.12;56.80;101020.59;5073774;28;19931;-57
2022/08/01 06:52:35;;;;;;;;;;;;;;;22.19;56.67;101037.69;5072378;28;19924;-54
2022/08/01 06:55:00;;;;;;;;;;;;;;;22.19;56.92;101029.66;5079106;28;19927;-56
2022/08/01 06:57:26;;;;;;;;;;;;;;;22.15;57.34;101028.31;5077396;28;20422;-56
2022/08/01 06:59:51;;;;;;;;;;;;;;;22.11;57.60;101032.28;5074359;28;19920;-58
2022/08/01 07:02:17;;;;;;;;;;;;;;;22.10;57.46;101025.25;5076186;28;19985;-59
2022/08/01 07:04:42;;;;;;;;;;;;;;;22.10;57.93;101030.63;5078469;28;19920;-58
2022/08/01 07:07:08;;;;;;;;;;;;;;;22.02;58.52;101022.50;5079311;28;19936;-54
2022/08/01 07:09:33;;;;;;;;;;;;;;;21.99;58.38;101034.38;5087397;28;19916;-58
2022/08/01 07:11:59;;;;;;;;;;;;;;;21.98;58.18;101042.59;5089209;28;19924;-59
2022/08/01 07:14:24;;;;;;;;;;;;;;;21.97;58.35;101035.56;5087838;28;20730;-52
2022/08/01 07:16:50;;;;;;;;;;;;;;;21.99;58.33;101028.19;5082080;28;19930;-58
2022/08/01 07:19:15;;;;;;;;;;;;;;;22.01;58.37;101026.19;5086921;28;20333;-58
2022/08/01 07:21:40;;;;;;;;;;;;;;;22.03;58.34;101030.41;5083481;28;20023;-62
2022/08/01 07:24:06;;;;;;;;;;;;;;;22.04;58.48;101025.88;5090653;28;20006;-54
2022/08/01 07:26:32;;;;;;;;;;;;;;;22.03;58.94;101034.91;5081393;28;20196;-57
2022/08/01 07:28:57;;;;;;;;;;;;;;;22.03;58.44;101034.91;5084756;28;19924;-59
2022/08/01 07:31:23;;;;;;;;;;;;;;;22.00;59.29;101030.72;5084616;28;19920;-53
2022/08/01 07:33:48;;;;;;;;;;;;;;;22.00;58.92;101025.34;5086207;28;19924;-53
2022/08/01 07:36:13;;;;;;;;;;;;;;;22.01;59.33;101021.69;5081471;28;19921;-52
2022/08/01 07:38:39;;;;;;;;;;;;;;;22.05;59.24;101027.56;5088111;28;19981;-53
2022/08/01 07:41:04;;;;;;;;;;;;;;;22.15;59.07;101028.31;5086102;28;19916;-58
2022/08/01 07:43:29;;;;;;;;;;;;;;;22.27;59.01;101033.41;5088578;28;20031;-54
2022/08/01 07:45:54;;;;;;;;;;;;;;;22.31;58.46;101032.91;5088019;28;19927;-53
2022/08/01 07:48:23;;;;;;;;;;;;;;;22.34;58.38;101029.06;5088323;28;19965;-58
2022/08/01 07:50:49;;;;;;;;;;;;;;;22.36;58.62;101037.78;5080729;28;19920;-53
2022/08/01 07:53:14;;;;;;;;;;;;;;;22.37;58.19;101032.28;5081933;28;19922;-58
2022/08/01 07:55:39;;;;;;;;;;;;;;;22.36;58.34;101035.97;5080230;28;20310;-52
2022/08/01 07:58:05;;;;;;;;;;;;;;;22.33;58.77;101035.44;5084631;28;19985;-54
2022/08/01 08:00:30;;;;;;;;;;;;;;;22.30;58.84;101044.63;5082836;28;19935;-52
2022/08/01 08:02:58;;;;;;;;;;;;;;;22.26;59.06;101039.75;5086379;28;19929;-53
2022/08/01 08:05:23;;;;;;;;;;;;;;;22.27;58.94;101046.81;5087768;28;20003;-53
2022/08/01 08:07:49;;;;;;;;;;;;;;;22.25;59.26;101040.75;5082794;28;20010;-56
2022/08/01 08:10:14;;;;;;;;;;;;;;;22.25;59.16;101051.47;5077069;28;20278;-53
2022/08/01 08:12:39;;;;;;;;;;;;;;;22.22;59.55;101044.59;5067871;28;20007;-63
2022/08/01 08:15:05;;;;;;;;;;;;;;;22.25;59.14;101041.56;5080476;28;20725;-59
2022/08/01 08:17:31;;;;;;;;;;;;;;;22.31;59.09;101048.19;5076509;28;19988;-54
2022/08/01 08:19:57;;;;;;;;;;;;;;;22.35;59.08;101054.88;5078940;28;20043;-56
2022/08/01 08:22:22;;;;;;;;;;;;;;;22.38;58.63;101049.19;5079854;28;20532;-54
2022/08/01 08:24:48;;;;;;;;;;;;;;;22.42;59.05;101055.09;5077921;28;19982;-53
2022/08/01 08:27:14;;;;;;;;;;;;;;;22.43;58.58;101060.34;5072949;28;20021;-59
2022/08/01 08:29:39;;;;;;;;;;;;;;;22.47;58.41;101059.00;5074415;28;19958;-58
2022/08/01 08:32:05;;;;;;;;;;;;;;;22.53;58.70;101063.72;5077363;28;20019;-55
2022/08/01 08:34:30;;;;;;;;;;;;;;;22.58;58.64;101062.41;5072795;28;20970;-55
2022/08/01 08:36:57;;;;;;;;;;;;;;;22.63;58.44;101057.41;5080198;28;20402;-52
2022/08/01 08:39:22;;;;;;;;;;;;;;;22.66;58.45;101067.81;5078859;28;19943;-52
2022/08/01 08:41:48;;;;;;;;;;;;;;;22.74;58.20;101070.53;5074020;28;19935;-57
2022/08/01 08:44:14;;;;;;;;;;;;;;;22.79;58.12;101068.19;5079404;28;19939;-56
2022/08/01 08:46:41;;;;;;;;;;;;;;;22.84;57.94;101065.88;5077940;28;20337;-55
2022/08/01 08:49:07;;;;;;;;;;;;;;;22.91;57.67;101067.94;5081392;28;19920;-66
2022/08/01 08:51:33;;;;;;;;;;;;;;;22.96;57.42;101062.91;5076598;28;19924;-55
2022/08/01 08:54:00;;;;;;;;;;;;;;;23.03;57.23;101063.94;5077931;28;19927;-52
2022/08/01 08:56:26;;;;;;;;;;;;;;;23.08;57.33;101061.59;5081791;28;20309;-53
2022/08/01 08:58:51;;;;;;;;;;;;;;;23.08;57.29;101056.22;5081018;28;19923;-52
2022/08/01 09:01:17;;;;;;;;;;;;;;;23.07;57.33;101065.28;5071852;28;19983;-56
2022/08/01 09:03:43;;;;;;;;;;;;;;;23.07;57.21;101070.63;5080525;28;19960;-55
2022/08/01 09:06:09;;;;;;;;;;;;;;;23.06;57.37;101063.63;5083128;28;19924;-61
2022/08/01 09:08:35;;;;;;;;;;;;;;;23.06;57.25;101071.69;5086686;28;19923;-57
2022/08/01 09:11:00;;;;;;;;;;;;;;;23.06;57.12;101069.00;5081098;28;19956;-56
2022/08/01 09:13:26;;;;;;;;;;;;;;;23.07;57.04;101076.00;5082051;28;19917;-61
2022/08/01 09:15:55;;;;;;;;;;;;;;;23.06;56.92;101079.72;5075976;28;19964;-62
2022/08/01 09:18:29;;;;;;;;;;;;;;;23.05;57.15;101079.88;5073943;28;19919;-54
2022/08/01 09:21:06;;;;;;;;;;;;;;;23.04;57.07;101089.78;5075213;28;20368;-53
2022/08/01 09:23:32;;;;;;;;;;;;;;;22.99;57.13;101086.72;5083536;28;20338;-55
2022/08/01 09:25:58;;;;;;;;;;;;;;;22.91;57.18;101089.41;5083049;28;19927;-56
2022/08/01 09:28:29;;;;;;;;;;;;;;;22.88;57.54;101100.44;5083190;28;19924;-52
2022/08/01 09:30:58;;;;;;;;;;;;;;;22.90;57.24;101098.44;5085021;28;20043;-55
2022/08/01 09:33:23;;;;;;;;;;;;;;;22.93;57.56;101090.91;5081477;28;19916;-63
2022/08/01 09:35:56;;;;;;;;;;;;;;;22.96;57.46;101095.09;5083821;28;19954;-56
2022/08/01 09:38:22;;;;;;;;;;;;;;;22.98;57.37;101093.09;5084932;28;20369;-53
2022/08/01 09:40:58;;;;;;;;;;;;;;;22.97;57.38;101097.63;5081602;28;19920;-58
2022/08/01 09:43:25;;;;;;;;;;;;;;;22.96;57.48;101095.09;5083864;28;20307;-54
2022/08/01 09:45:51;;;;;;;;;;;;;;;22.93;57.55;101095.41;5082465;28;19923;-59
2022/08/01 09:48:17;;;;;;;;;;;;;;;22.94;57.76;101097.09;5083463;28;19916;-57
2022/08/01 09:50:43;;;;;;;;;;;;;;;22.95;57.58;101096.09;5081349;28;19920;-60
2022/08/01 09:53:09;;;;;;;;;;;;;;;22.97;57.39;101102.16;5084806;28;19999;-53
2022/08/01 09:55:35;;;;;;;;;;;;;;;22.99;57.24;101110.88;5084747;28;20012;-54
2022/08/01 09:58:00;;;;;;;;;;;;;;;23.00;57.28;101112.56;5086855;28;19923;-55
2022/08/01 10:00:26;;;;;;;;;;;;;;;22.99;57.29;101119.75;5081457;28;19921;-53
2022/08/01 10:02:51;;;;;;;;;;;;;;;22.95;57.37;101112.19;5081982;28;19920;-59
2022/08/01 10:05:16;;;;;;;;;;;;;;;22.92;57.41;101120.56;5081564;28;19951;-62
2022/08/01 10:07:57;;;;;;;;;;;;;;;22.88;57.62;101108.50;5080079;28;19928;-56
2022/08/01 10:10:22;;;;;;;;;;;;;;;22.89;57.76;101112.84;5084677;28;19924;-54
2022/08/01 10:12:48;;;;;;;;;;;;;;;22.91;58.02;101119.72;5083335;28;19924;-60
2022/08/01 10:15:17;;;;;;;;;;;;;;;22.96;58.30;101117.41;5082063;28;19953;-56
2022/08/01 10:17:46;;;;;;;;;;;;;;;22.99;58.57;101119.75;5079976;28;19969;-52
2022/08/01 10:20:12;;;;;;;;;;;;;;;22.96;58.93;101121.94;5083759;28;20013;-61
2022/08/01 10:22:38;;;;;;;;;;;;;;;22.95;58.96;101120.25;5082951;28;19932;-53
2022/08/01 10:25:04;;;;;;;;;;;;;;;22.97;58.47;101119.09;5079923;28;19930;-58
2022/08/01 10:27:32;;;;;;;;;;;;;;;22.99;58.57;101133.16;5083212;28;19920;-55
2022/08/01 10:30:09;;;;;;;;;;;;;;;23.01;58.13;101124.97;5084729;28;20014;-56
2022/08/01 10:32:35;;;;;;;;;;;;;;;23.03;58.01;101124.81;5079706;28;20318;-57
2022/08/01 10:35:01;;;;;;;;;;;;;;;23.05;58.18;101131.72;5085696;28;19969;-53
2022/08/01 10:37:27;;;;;;;;;;;;;;;23.09;57.79;101138.41;5082153;28;19939;-53
2022/08/01 10:39:53;;;;;;;;;;;;;;;23.10;57.73;101134.72;5081451;28;20303;-55
2022/08/01 10:42:18;;;;;;;;;;;;;;;23.09;57.31;101132.22;5077538;28;20300;-58
2022/08/01 10:44:47;;;;;;;;;;;;;;;23.08;57.41;101142.09;5083565;28;19927;-57
2022/08/01 10:47:13;;;;;;;;;;;;;;;23.08;57.05;101131.38;5083446;28;19928;-56
2022/08/01 10:49:43;;;;;;;;;;;;;;;23.09;57.29;101133.06;5078871;28;19923;-54
2022/08/01 10:52:13;;;;;;;;;;;;;;;23.13;57.19;101133.59;5076793;28;19917;-58
2022/08/01 10:54:40;;;;;;;;;;;;;;;23.18;57.08;101135.78;5078682;28;19916;-56
2022/08/01 10:57:06;;;;;;;;;;;;;;;23.23;56.97;101138.84;5081319;28;19944;-52
2022/08/01 10:59:33;;;;;;;;;;;;;;;23.30;56.79;101142.56;5088168;28;19920;-52
2022/08/01 11:02:03;;;;;;;;;;;;;;;23.38;56.52;101137.19;5083942;28;19927;-53
2022/08/01 11:04:40;;;;;;;;;;;;;;;23.42;56.41;101143.94;5090936;28;20548;-52
2022/08/01 11:07:07;;;;;;;;;;;;;;;23.49;56.07;101140.59;5091029;28;19976;-57
2022/08/01 11:09:43;;;;;;;;;;;;;;;23.52;56.12;101141.09;5085483;28;19924;-54
2022/08/01 11:12:09;;;;;;;;;;;;;;;23.62;55.89;101151.72;5084047;28;19927;-53
2022/08/01 11:14:55;;;;;;;;;;;;;;;23.68;56.03;101142.16;5085089;28;19924;-59
2022/08/01 11:17:36;;;;;;;;;;;;;;;23.75;55.89;101137.78;5081523;28;19912;-52
2022/08/01 11:20:05;;;;;;;;;;;;;;;23.85;55.66;101148.38;5085914;28;19916;-55
2022/08/01 11:22:30;;;;;;;;;;;;;;;23.89;55.51;101141.66;5075127;28;19928;-54
2022/08/01 11:24:59;;;;;;;;;;;;;;;23.90;55.27;101146.03;5081040;28;19920;-54
2022/08/01 11:27:28;;;;;;;;;;;;;;;23.87;55.33;101147.22;5082834;28;19920;-53
2022/08/01 11:30:09;;;;;;;;;;;;;;;23.82;55.29;101159.47;5088745;28;19920;-55
2022/08/01 11:32:45;;;;;;;;;;;;;;;23.77;55.69;101162.63;5084037;28;19923;-54
2022/08/01 11:35:11;;;;;;;;;;;;;;;23.70;55.48;101173.19;5077396;28;19916;-57
2022/08/01 11:37:37;;;;;;;;;;;;;;;23.61;55.41;101168.81;5076376;28;19928;-53
2022/08/01 11:40:15;;;;;;;;;;;;;;;23.49;55.96;101175.50;5081022;28;19946;-56
2022/08/01 11:42:40;;;;;;;;;;;;;;;23.40;56.23;101164.72;5071483;28;19955;-56
2022/08/01 11:45:06;;;;;;;;;;;;;;;23.38;56.51;101177.47;5080652;28;20438;-62
2022/08/01 11:47:42;;;;;;;;;;;;;;;23.37;56.31;101173.09;5078184;28;19919;-56
2022/08/01 11:50:28;;;;;;;;;;;;;;;23.35;56.44;101175.13;5081066;28;19987;-59
2022/08/01 11:52:57;;;;;;;;;;;;;;;23.28;56.15;101184.84;5082385;28;19935;-61
2022/08/01 11:55:23;;;;;;;;;;;;;;;23.22;56.20;101180.09;5077331;28;19943;-62
2022/08/01 11:57:48;;;;;;;;;;;;;;;23.19;56.52;101180.41;5080420;28;20314;-63
2022/08/01 12:00:15;;;;;;;;;;;;;;;23.17;56.46;101182.41;5075233;28;19928;-54
2022/08/01 12:02:40;;;;;;;;;;;;;;;23.21;56.47;101183.81;5077373;28;20625;-55
2022/08/01 12:05:06;;;;;;;;;;;;;;;23.25;56.65;101188.69;5081802;28;20059;-62
2022/08/01 12:07:32;;;;;;;;;;;;;;;23.30;56.76;101188.19;5079133;28;19916;-62
2022/08/01 12:10:00;;;;;;;;;;;;;;;23.34;56.86;101200.31;5075704;28;20299;-55
2022/08/01 12:12:26;;;;;;;;;;;;;;;23.37;56.60;101194.59;5076655;28;20011;-59
2022/08/01 12:14:55;;;;;;;;;;;;;;;23.40;56.58;101188.91;5079480;28;20481;-63
2022/08/01 12:17:28;;;;;;;;;;;;;;;23.43;56.90;101193.94;5077566;28;20452;-52
2022/08/01 12:19:53;;;;;;;;;;;;;;;23.42;56.69;101189.59;5079628;28;19920;-53
2022/08/01 12:22:21;;;;;;;;;;;;;;;23.42;56.39;101202.19;5079512;28;19967;-53
2022/08/01 12:24:46;;;;;;;;;;;;;;;23.42;56.45;101196.81;5075228;28;19975;-52
2022/08/01 12:27:23;;;;;;;;;;;;;;;23.39;56.65;101205.19;5081694;28;19928;-53
2022/08/01 12:29:48;;;;;;;;;;;;;;;23.33;56.58;101204.00;5074818;28;20375;-62
2022/08/01 12:32:22;;;;;;;;;;;;;;;23.26;57.44;101189.50;5082805;28;19927;-58
2022/08/01 12:34:48;;;;;;;;;;;;;;;23.24;57.66;101202.25;5079252;28;20333;-56
2022/08/01 12:37:14;;;;;;;;;;;;;;;23.24;57.60;101196.88;5080131;28;20708;-55